createdAt,value
2016-06-10T00:00:03.033Z,1012.26
2016-06-10T00:00:13.036Z,1012.26
2016-06-10T00:00:23.020Z,1012.23
2016-06-10T00:00:33.020Z,1012.29
2016-06-10T00:00:43.020Z,1012.31
2016-06-10T00:00:53.020Z,1012.28
2016-06-10T00:01:03.005Z,1012.25
2016-06-10T00:01:13.008Z,1012.26
2016-06-10T00:01:22.992Z,1012.23
2016-06-10T00:01:32.992Z,1012.25
2016-06-10T00:01:42.992Z,1012.23
2016-06-10T00:01:52.977Z,1012.24
2016-06-10T00:02:02.977Z,1012.25
2016-06-10T00:02:12.980Z,1012.2
2016-06-10T00:02:22.964Z,1012.24
2016-06-10T00:02:32.964Z,1012.22
2016-06-10T00:02:42.964Z,1012.2
2016-06-10T00:02:52.948Z,1012.18
2016-06-10T00:03:02.948Z,1012.2
2016-06-10T00:03:12.936Z,1012.21
2016-06-10T00:03:22.936Z,1012.19
2016-06-10T00:03:32.936Z,1012.26
2016-06-10T00:03:42.936Z,1012.18
2016-06-10T00:03:52.936Z,1012.17
2016-06-10T00:04:02.936Z,1012.23
2016-06-10T00:04:12.923Z,1012.2
2016-06-10T00:04:22.907Z,1012.18
2016-06-10T00:04:32.907Z,1012.19
2016-06-10T00:04:42.892Z,1012.17
2016-06-10T00:04:52.892Z,1012.16
2016-06-10T00:05:02.892Z,1012.16
2016-06-10T00:05:12.896Z,1012.11
2016-06-10T00:05:22.896Z,1012.15
2016-06-10T00:05:32.865Z,1012.17
2016-06-10T00:05:42.865Z,1012.16
2016-06-10T00:05:52.849Z,1012.13
2016-06-10T00:06:02.865Z,1012.09
2016-06-10T00:06:12.851Z,1012.12
2016-06-10T00:06:22.851Z,1012.13
2016-06-10T00:06:32.851Z,1012.09
2016-06-10T00:06:42.835Z,1012.12
2016-06-10T00:06:52.835Z,1012.09
2016-06-10T00:07:02.820Z,1012.1
2016-06-10T00:07:12.824Z,1012.11
2016-06-10T00:07:22.824Z,1012.1
2016-06-10T00:07:32.808Z,1012.12
2016-06-10T00:07:42.808Z,1012.07
2016-06-10T00:07:52.808Z,1012.13
2016-06-10T00:08:02.792Z,1012.08
2016-06-10T00:08:12.795Z,1012.13
2016-06-10T00:08:22.795Z,1012.14
2016-06-10T00:08:32.780Z,1012.16
2016-06-10T00:08:42.795Z,1012.13
2016-06-10T00:08:52.780Z,1012.14
2016-06-10T00:09:04.436Z,1012.09
2016-06-10T00:09:13.189Z,1012.11
2016-06-10T00:09:23.033Z,1012.05
2016-06-10T00:09:33.673Z,1012.1
2016-06-10T00:09:42.767Z,1012.11
2016-06-10T00:09:52.798Z,1012.1
2016-06-10T00:10:03.033Z,1012.09
2016-06-10T00:10:12.739Z,1012.11
2016-06-10T00:10:23.036Z,1012.08
2016-06-10T00:10:32.723Z,1012.09
2016-06-10T00:10:42.723Z,1012.11
2016-06-10T00:10:52.708Z,1012.09
2016-06-10T00:11:02.708Z,1012.13
2016-06-10T00:11:12.695Z,1012.06
2016-06-10T00:11:22.711Z,1012.1
2016-06-10T00:11:32.695Z,1012.07
2016-06-10T00:11:42.695Z,1012.1
2016-06-10T00:11:52.679Z,1012.1
2016-06-10T00:12:02.679Z,1012.13
2016-06-10T00:12:12.682Z,1012.1
2016-06-10T00:12:22.667Z,1012.07
2016-06-10T00:12:32.667Z,1012.07
2016-06-10T00:12:42.667Z,1012.07
2016-06-10T00:12:52.651Z,1012.1
2016-06-10T00:13:02.651Z,1012.08
2016-06-10T00:13:12.654Z,1012.13
2016-06-10T00:13:22.639Z,1012.03
2016-06-10T00:13:32.639Z,1012.03
2016-06-10T00:13:42.639Z,1012.05
2016-06-10T00:13:52.623Z,1012.07
2016-06-10T00:14:02.623Z,1012.05
2016-06-10T00:14:12.610Z,1012.14
2016-06-10T00:14:22.610Z,1012.06
2016-06-10T00:14:32.610Z,1012.08
2016-06-10T00:14:42.438Z,1012.08
2016-06-10T00:14:52.595Z,1012.07
2016-06-10T00:15:02.595Z,1012.01
2016-06-10T00:15:12.582Z,1012.08
2016-06-10T00:15:22.613Z,1012.04
2016-06-10T00:15:32.582Z,1012.06
2016-06-10T00:15:42.582Z,1012.05
2016-06-10T00:15:52.566Z,1012.04
2016-06-10T00:16:02.566Z,1012.1
2016-06-10T00:16:12.554Z,1012.03
2016-06-10T00:16:22.554Z,1012.05
2016-06-10T00:16:32.554Z,1012.03
2016-06-10T00:16:42.538Z,1012.05
2016-06-10T00:16:52.538Z,1012.03
2016-06-10T00:17:02.538Z,1012.07
2016-06-10T00:17:12.527Z,1012.03
2016-06-10T00:17:22.527Z,1012.03
2016-06-10T00:17:32.527Z,1012.04
2016-06-10T00:17:42.527Z,1012.02
2016-06-10T00:17:52.511Z,1012.04
2016-06-10T00:18:02.511Z,1012.01
2016-06-10T00:18:12.498Z,1012.06
2016-06-10T00:18:22.498Z,1012.06
2016-06-10T00:18:32.498Z,1012
2016-06-10T00:18:42.342Z,1012.02
2016-06-10T00:18:52.483Z,1012.01
2016-06-10T00:19:02.467Z,1012.02
2016-06-10T00:19:12.485Z,1012.05
2016-06-10T00:19:22.469Z,1012.03
2016-06-10T00:19:32.453Z,1011.99
2016-06-10T00:19:42.313Z,1012
2016-06-10T00:19:53.078Z,1011.95
2016-06-10T00:20:02.438Z,1012.03
2016-06-10T00:20:12.456Z,1012
2016-06-10T00:20:22.441Z,1012.03
2016-06-10T00:20:32.425Z,1012.01
2016-06-10T00:20:42.441Z,1012.04
2016-06-10T00:20:52.425Z,1012.02
2016-06-10T00:21:02.410Z,1012.02
2016-06-10T00:21:12.414Z,1012.03
2016-06-10T00:21:22.398Z,1011.99
2016-06-10T00:21:32.414Z,1012
2016-06-10T00:21:42.398Z,1012.03
2016-06-10T00:21:52.398Z,1012.05
2016-06-10T00:22:02.382Z,1012.05
2016-06-10T00:22:12.385Z,1012.01
2016-06-10T00:22:22.370Z,1012.05
2016-06-10T00:22:32.370Z,1012.02
2016-06-10T00:22:42.370Z,1012.02
2016-06-10T00:22:52.354Z,1012.01
2016-06-10T00:23:02.370Z,1012
2016-06-10T00:23:12.356Z,1012.03
2016-06-10T00:23:22.340Z,1012.03
2016-06-10T00:23:32.340Z,1012.03
2016-06-10T00:23:42.340Z,1012.02
2016-06-10T00:23:52.340Z,1011.99
2016-06-10T00:24:03.637Z,1011.97
2016-06-10T00:24:12.391Z,1012.03
2016-06-10T00:24:22.751Z,1012.04
2016-06-10T00:24:32.313Z,1012.01
2016-06-10T00:24:42.563Z,1012.04
2016-06-10T00:24:52.438Z,1011.99
2016-06-10T00:25:02.313Z,1012.01
2016-06-10T00:25:12.660Z,1012
2016-06-10T00:25:22.301Z,1012.02
2016-06-10T00:25:32.285Z,1011.99
2016-06-10T00:25:42.285Z,1011.99
2016-06-10T00:25:52.285Z,1012.01
2016-06-10T00:26:02.269Z,1011.96
2016-06-10T00:26:12.257Z,1012.01
2016-06-10T00:26:22.257Z,1012.03
2016-06-10T00:26:32.257Z,1012.03
2016-06-10T00:26:42.257Z,1012.03
2016-06-10T00:26:52.241Z,1012
2016-06-10T00:27:02.241Z,1012.03
2016-06-10T00:27:12.228Z,1012.04
2016-06-10T00:27:22.228Z,1011.98
2016-06-10T00:27:32.213Z,1012.01
2016-06-10T00:27:42.228Z,1011.99
2016-06-10T00:27:52.213Z,1012.01
2016-06-10T00:28:02.213Z,1012.01
2016-06-10T00:28:12.200Z,1012.01
2016-06-10T00:28:22.200Z,1011.97
2016-06-10T00:28:32.200Z,1012
2016-06-10T00:28:42.185Z,1012.03
2016-06-10T00:28:52.185Z,1011.99
2016-06-10T00:29:02.169Z,1012
2016-06-10T00:29:12.172Z,1012.01
2016-06-10T00:29:22.172Z,1012.01
2016-06-10T00:29:32.156Z,1011.98
2016-06-10T00:29:42.156Z,1011.98
2016-06-10T00:29:52.141Z,1012.01
2016-06-10T00:30:02.141Z,1012.01
2016-06-10T00:30:12.159Z,1012
2016-06-10T00:30:22.144Z,1011.96
2016-06-10T00:30:32.128Z,1012.01
2016-06-10T00:30:42.128Z,1012.01
2016-06-10T00:30:52.128Z,1012.03
2016-06-10T00:31:02.128Z,1011.97
2016-06-10T00:31:12.115Z,1011.96
2016-06-10T00:31:22.115Z,1012
2016-06-10T00:31:32.115Z,1011.98
2016-06-10T00:31:42.100Z,1012
2016-06-10T00:31:52.100Z,1011.96
2016-06-10T00:32:02.100Z,1011.96
2016-06-10T00:32:12.087Z,1011.97
2016-06-10T00:32:22.087Z,1011.96
2016-06-10T00:32:32.072Z,1011.95
2016-06-10T00:32:42.072Z,1011.97
2016-06-10T00:32:52.056Z,1011.94
2016-06-10T00:33:02.056Z,1011.96
2016-06-10T00:33:12.059Z,1011.94
2016-06-10T00:33:22.043Z,1011.93
2016-06-10T00:33:32.043Z,1011.96
2016-06-10T00:33:42.043Z,1011.94
2016-06-10T00:33:52.043Z,1011.94
2016-06-10T00:34:02.028Z,1011.89
2016-06-10T00:34:12.032Z,1011.9
2016-06-10T00:34:22.032Z,1011.92
2016-06-10T00:34:32.016Z,1011.92
2016-06-10T00:34:42.016Z,1011.96
2016-06-10T00:34:52.000Z,1011.93
2016-06-10T00:35:02.000Z,1011.92
2016-06-10T00:35:11.988Z,1012.01
2016-06-10T00:35:21.988Z,1011.93
2016-06-10T00:35:32.003Z,1011.94
2016-06-10T00:35:41.988Z,1011.93
2016-06-10T00:35:51.972Z,1011.94
2016-06-10T00:36:01.972Z,1011.9
2016-06-10T00:36:11.975Z,1011.94
2016-06-10T00:36:21.960Z,1011.97
2016-06-10T00:36:31.960Z,1011.95
2016-06-10T00:36:41.944Z,1012
2016-06-10T00:36:51.944Z,1011.97
2016-06-10T00:37:01.944Z,1011.91
2016-06-10T00:37:11.947Z,1011.93
2016-06-10T00:37:21.931Z,1011.98
2016-06-10T00:37:31.931Z,1011.94
2016-06-10T00:37:41.916Z,1011.95
2016-06-10T00:37:51.603Z,1011.99
2016-06-10T00:38:01.900Z,1011.93
2016-06-10T00:38:11.903Z,1011.95
2016-06-10T00:38:21.903Z,1011.94
2016-06-10T00:38:31.903Z,1011.92
2016-06-10T00:38:41.887Z,1011.94
2016-06-10T00:38:51.887Z,1011.89
2016-06-10T00:39:01.872Z,1011.96
2016-06-10T00:39:11.875Z,1011.94
2016-06-10T00:39:22.328Z,1011.92
2016-06-10T00:39:31.719Z,1011.92
2016-06-10T00:39:42.125Z,1011.89
2016-06-10T00:39:51.984Z,1011.9
2016-06-10T00:40:01.859Z,1011.89
2016-06-10T00:40:12.393Z,1011.94
2016-06-10T00:40:22.237Z,1011.89
2016-06-10T00:40:31.706Z,1011.89
2016-06-10T00:40:41.847Z,1011.87
2016-06-10T00:40:51.831Z,1011.83
2016-06-10T00:41:01.815Z,1011.89
2016-06-10T00:41:11.834Z,1011.86
2016-06-10T00:41:21.818Z,1011.87
2016-06-10T00:41:31.803Z,1011.86
2016-06-10T00:41:41.803Z,1011.92
2016-06-10T00:41:51.803Z,1011.88
2016-06-10T00:42:01.787Z,1011.88
2016-06-10T00:42:11.790Z,1011.9
2016-06-10T00:42:21.790Z,1011.91
2016-06-10T00:42:31.774Z,1011.91
2016-06-10T00:42:41.774Z,1011.89
2016-06-10T00:42:51.759Z,1011.89
2016-06-10T00:43:01.774Z,1011.89
2016-06-10T00:43:11.763Z,1011.88
2016-06-10T00:43:21.747Z,1011.91
2016-06-10T00:43:31.763Z,1011.86
2016-06-10T00:43:41.763Z,1011.89
2016-06-10T00:43:51.747Z,1011.87
2016-06-10T00:44:01.732Z,1011.87
2016-06-10T00:44:11.734Z,1011.89
2016-06-10T00:44:21.718Z,1011.89
2016-06-10T00:44:31.718Z,1011.87
2016-06-10T00:44:41.718Z,1011.89
2016-06-10T00:44:51.718Z,1011.87
2016-06-10T00:45:01.702Z,1011.87
2016-06-10T00:45:11.705Z,1011.85
2016-06-10T00:45:21.690Z,1011.87
2016-06-10T00:45:31.705Z,1011.86
2016-06-10T00:45:41.690Z,1011.89
2016-06-10T00:45:51.674Z,1011.89
2016-06-10T00:46:01.674Z,1011.89
2016-06-10T00:46:11.518Z,1011.84
2016-06-10T00:46:21.662Z,1011.88
2016-06-10T00:46:31.662Z,1011.9
2016-06-10T00:46:41.662Z,1011.91
2016-06-10T00:46:51.647Z,1011.9
2016-06-10T00:47:01.647Z,1011.91
2016-06-10T00:47:11.631Z,1011.88
2016-06-10T00:47:21.478Z,1011.85
2016-06-10T00:47:31.634Z,1011.88
2016-06-10T00:47:41.634Z,1011.87
2016-06-10T00:47:51.619Z,1011.9
2016-06-10T00:48:01.603Z,1011.91
2016-06-10T00:48:11.603Z,1011.85
2016-06-10T00:48:21.465Z,1011.83
2016-06-10T00:48:31.590Z,1011.86
2016-06-10T00:48:41.606Z,1011.85
2016-06-10T00:48:51.590Z,1011.85
2016-06-10T00:49:01.606Z,1011.89
2016-06-10T00:49:11.590Z,1011.87
2016-06-10T00:49:21.577Z,1011.86
2016-06-10T00:49:31.577Z,1011.88
2016-06-10T00:49:41.561Z,1011.91
2016-06-10T00:49:51.561Z,1011.87
2016-06-10T00:50:01.561Z,1011.86
2016-06-10T00:50:11.545Z,1011.83
2016-06-10T00:50:21.549Z,1011.88
2016-06-10T00:50:31.534Z,1011.87
2016-06-10T00:50:41.378Z,1011.83
2016-06-10T00:50:51.518Z,1011.82
2016-06-10T00:51:01.518Z,1011.81
2016-06-10T00:51:11.518Z,1011.87
2016-06-10T00:51:21.365Z,1011.8
2016-06-10T00:51:31.521Z,1011.86
2016-06-10T00:51:41.506Z,1011.84
2016-06-10T00:51:51.490Z,1011.84
2016-06-10T00:52:01.490Z,1011.88
2016-06-10T00:52:11.490Z,1011.83
2016-06-10T00:52:21.493Z,1011.83
2016-06-10T00:52:31.477Z,1011.81
2016-06-10T00:52:41.477Z,1011.83
2016-06-10T00:52:51.477Z,1011.84
2016-06-10T00:53:01.462Z,1011.84
2016-06-10T00:53:11.462Z,1011.81
2016-06-10T00:53:21.465Z,1011.83
2016-06-10T00:53:31.449Z,1011.81
2016-06-10T00:53:41.433Z,1011.8
2016-06-10T00:53:51.449Z,1011.8
2016-06-10T00:54:01.433Z,1011.86
2016-06-10T00:54:11.433Z,1011.81
2016-06-10T00:54:21.827Z,1011.85
2016-06-10T00:54:31.843Z,1011.81
2016-06-10T00:54:41.280Z,1011.82
2016-06-10T00:54:51.421Z,1011.84
2016-06-10T00:55:01.968Z,1011.83
2016-06-10T00:55:12.299Z,1011.79
2016-06-10T00:55:21.627Z,1011.88
2016-06-10T00:55:31.971Z,1011.8
2016-06-10T00:55:41.393Z,1011.87
2016-06-10T00:55:51.377Z,1011.85
2016-06-10T00:56:01.393Z,1011.84
2016-06-10T00:56:11.377Z,1011.79
2016-06-10T00:56:21.364Z,1011.84
2016-06-10T00:56:31.364Z,1011.84
2016-06-10T00:56:41.349Z,1011.88
2016-06-10T00:56:51.349Z,1011.89
2016-06-10T00:57:01.349Z,1011.89
2016-06-10T00:57:11.333Z,1011.83
2016-06-10T00:57:21.336Z,1011.88
2016-06-10T00:57:31.336Z,1011.88
2016-06-10T00:57:41.320Z,1011.86
2016-06-10T00:57:51.320Z,1011.88
2016-06-10T00:58:01.320Z,1011.92
2016-06-10T00:58:11.320Z,1011.82
2016-06-10T00:58:21.308Z,1011.84
2016-06-10T00:58:31.323Z,1011.88
2016-06-10T00:58:41.308Z,1011.82
2016-06-10T00:58:51.292Z,1011.86
2016-06-10T00:59:01.292Z,1011.86
2016-06-10T00:59:11.277Z,1011.87
2016-06-10T00:59:21.281Z,1011.88
2016-06-10T00:59:31.265Z,1011.88
2016-06-10T00:59:41.265Z,1011.81
2016-06-10T00:59:51.265Z,1011.85
2016-06-10T01:00:01.249Z,1011.9
2016-06-10T01:00:11.249Z,1011.85
2016-06-10T01:00:21.237Z,1011.82
2016-06-10T01:00:31.237Z,1011.83
2016-06-10T01:00:41.237Z,1011.83
2016-06-10T01:00:51.237Z,1011.84
2016-06-10T01:01:01.252Z,1011.8
2016-06-10T01:01:11.221Z,1011.82
2016-06-10T01:01:21.224Z,1011.84
2016-06-10T01:01:31.208Z,1011.79
2016-06-10T01:01:41.208Z,1011.86
2016-06-10T01:01:51.208Z,1011.84
2016-06-10T01:02:01.193Z,1011.84
2016-06-10T01:02:11.193Z,1011.84
2016-06-10T01:02:21.180Z,1011.84
2016-06-10T01:02:31.180Z,1011.81
2016-06-10T01:02:41.180Z,1011.83
2016-06-10T01:02:51.180Z,1011.87
2016-06-10T01:03:01.165Z,1011.82
2016-06-10T01:03:11.165Z,1011.85
2016-06-10T01:03:21.152Z,1011.81
2016-06-10T01:03:31.152Z,1011.8
2016-06-10T01:03:41.136Z,1011.83
2016-06-10T01:03:51.136Z,1011.83
2016-06-10T01:04:01.136Z,1011.83
2016-06-10T01:04:11.121Z,1011.88
2016-06-10T01:04:21.139Z,1011.84
2016-06-10T01:04:31.124Z,1011.81
2016-06-10T01:04:41.108Z,1011.84
2016-06-10T01:04:51.108Z,1011.85
2016-06-10T01:05:01.108Z,1011.88
2016-06-10T01:05:11.092Z,1011.84
2016-06-10T01:05:21.095Z,1011.86
2016-06-10T01:05:31.095Z,1011.8
2016-06-10T01:05:41.080Z,1011.85
2016-06-10T01:05:51.080Z,1011.75
2016-06-10T01:06:01.080Z,1011.83
2016-06-10T01:06:11.080Z,1011.85
2016-06-10T01:06:21.067Z,1011.82
2016-06-10T01:06:31.067Z,1011.8
2016-06-10T01:06:41.067Z,1011.82
2016-06-10T01:06:51.052Z,1011.83
2016-06-10T01:07:01.052Z,1011.84
2016-06-10T01:07:11.036Z,1011.82
2016-06-10T01:07:21.055Z,1011.88
2016-06-10T01:07:31.023Z,1011.81
2016-06-10T01:07:41.023Z,1011.86
2016-06-10T01:07:51.023Z,1011.87
2016-06-10T01:08:01.023Z,1011.81
2016-06-10T01:08:11.008Z,1011.84
2016-06-10T01:08:21.011Z,1011.8
2016-06-10T01:08:31.011Z,1011.86
2016-06-10T01:08:40.995Z,1011.8
2016-06-10T01:08:50.995Z,1011.79
2016-06-10T01:09:00.995Z,1011.8
2016-06-10T01:09:10.979Z,1011.78
2016-06-10T01:09:20.982Z,1011.81
2016-06-10T01:09:30.811Z,1011.79
2016-06-10T01:09:40.967Z,1011.8
2016-06-10T01:09:50.967Z,1011.79
2016-06-10T01:10:01.029Z,1011.83
2016-06-10T01:10:11.342Z,1011.77
2016-06-10T01:10:20.971Z,1011.81
2016-06-10T01:10:31.658Z,1011.78
2016-06-10T01:10:40.783Z,1011.8
2016-06-10T01:10:50.783Z,1011.77
2016-06-10T01:11:00.924Z,1011.82
2016-06-10T01:11:10.924Z,1011.79
2016-06-10T01:11:20.927Z,1011.8
2016-06-10T01:11:30.911Z,1011.79
2016-06-10T01:11:40.896Z,1011.79
2016-06-10T01:11:50.896Z,1011.75
2016-06-10T01:12:00.896Z,1011.79
2016-06-10T01:12:10.896Z,1011.82
2016-06-10T01:12:20.883Z,1011.81
2016-06-10T01:12:30.883Z,1011.78
2016-06-10T01:12:40.883Z,1011.77
2016-06-10T01:12:50.867Z,1011.75
2016-06-10T01:13:00.867Z,1011.76
2016-06-10T01:13:10.867Z,1011.77
2016-06-10T01:13:20.855Z,1011.8
2016-06-10T01:13:30.855Z,1011.72
2016-06-10T01:13:40.855Z,1011.76
2016-06-10T01:13:50.839Z,1011.82
2016-06-10T01:14:00.839Z,1011.75
2016-06-10T01:14:10.839Z,1011.78
2016-06-10T01:14:20.827Z,1011.79
2016-06-10T01:14:30.827Z,1011.78
2016-06-10T01:14:40.827Z,1011.8
2016-06-10T01:14:50.827Z,1011.73
2016-06-10T01:15:00.811Z,1011.79
2016-06-10T01:15:10.795Z,1011.72
2016-06-10T01:15:20.814Z,1011.77
2016-06-10T01:15:30.798Z,1011.79
2016-06-10T01:15:40.798Z,1011.8
2016-06-10T01:15:50.798Z,1011.75
2016-06-10T01:16:00.626Z,1011.78
2016-06-10T01:16:10.783Z,1011.74
2016-06-10T01:16:20.770Z,1011.78
2016-06-10T01:16:30.770Z,1011.79
2016-06-10T01:16:40.754Z,1011.72
2016-06-10T01:16:50.754Z,1011.72
2016-06-10T01:17:00.770Z,1011.77
2016-06-10T01:17:10.754Z,1011.75
2016-06-10T01:17:20.742Z,1011.73
2016-06-10T01:17:30.726Z,1011.75
2016-06-10T01:17:40.726Z,1011.77
2016-06-10T01:17:50.726Z,1011.79
2016-06-10T01:18:00.726Z,1011.78
2016-06-10T01:18:10.726Z,1011.77
2016-06-10T01:18:20.714Z,1011.73
2016-06-10T01:18:30.714Z,1011.7
2016-06-10T01:18:40.698Z,1011.71
2016-06-10T01:18:50.698Z,1011.69
2016-06-10T01:19:00.698Z,1011.68
2016-06-10T01:19:10.682Z,1011.75
2016-06-10T01:19:20.670Z,1011.74
2016-06-10T01:19:30.670Z,1011.7
2016-06-10T01:19:40.670Z,1011.69
2016-06-10T01:19:50.654Z,1011.72
2016-06-10T01:20:00.670Z,1011.73
2016-06-10T01:20:10.670Z,1011.72
2016-06-10T01:20:20.642Z,1011.68
2016-06-10T01:20:30.642Z,1011.65
2016-06-10T01:20:40.642Z,1011.63
2016-06-10T01:20:50.627Z,1011.64
2016-06-10T01:21:00.627Z,1011.6
2016-06-10T01:21:10.471Z,1011.61
2016-06-10T01:21:20.613Z,1011.7
2016-06-10T01:21:30.613Z,1011.67
2016-06-10T01:21:40.613Z,1011.64
2016-06-10T01:21:50.613Z,1011.66
2016-06-10T01:22:00.598Z,1011.62
2016-06-10T01:22:10.582Z,1011.63
2016-06-10T01:22:20.585Z,1011.62
2016-06-10T01:22:30.585Z,1011.63
2016-06-10T01:22:40.585Z,1011.65
2016-06-10T01:22:50.569Z,1011.63
2016-06-10T01:23:00.569Z,1011.65
2016-06-10T01:23:10.554Z,1011.63
2016-06-10T01:23:20.557Z,1011.63
2016-06-10T01:23:30.557Z,1011.6
2016-06-10T01:23:40.541Z,1011.64
2016-06-10T01:23:50.541Z,1011.59
2016-06-10T01:24:00.541Z,1011.61
2016-06-10T01:24:10.525Z,1011.6
2016-06-10T01:24:20.529Z,1011.63
2016-06-10T01:24:30.686Z,1011.61
2016-06-10T01:24:40.826Z,1011.6
2016-06-10T01:24:50.373Z,1011.61
2016-06-10T01:25:00.514Z,1011.65
2016-06-10T01:25:10.951Z,1011.68
2016-06-10T01:25:20.360Z,1011.62
2016-06-10T01:25:32.110Z,1011.62
2016-06-10T01:25:40.500Z,1011.63
2016-06-10T01:25:50.485Z,1011.62
2016-06-10T01:26:00.485Z,1011.65
2016-06-10T01:26:10.469Z,1011.63
2016-06-10T01:26:20.489Z,1011.65
2016-06-10T01:26:30.473Z,1011.69
2016-06-10T01:26:40.457Z,1011.7
2016-06-10T01:26:50.457Z,1011.65
2016-06-10T01:27:00.457Z,1011.63
2016-06-10T01:27:10.442Z,1011.64
2016-06-10T01:27:20.444Z,1011.64
2016-06-10T01:27:30.444Z,1011.65
2016-06-10T01:27:40.428Z,1011.62
2016-06-10T01:27:50.428Z,1011.61
2016-06-10T01:28:00.412Z,1011.65
2016-06-10T01:28:10.412Z,1011.65
2016-06-10T01:28:20.416Z,1011.65
2016-06-10T01:28:30.416Z,1011.63
2016-06-10T01:28:40.401Z,1011.62
2016-06-10T01:28:50.385Z,1011.62
2016-06-10T01:29:00.401Z,1011.62
2016-06-10T01:29:10.385Z,1011.66
2016-06-10T01:29:20.387Z,1011.62
2016-06-10T01:29:30.372Z,1011.65
2016-06-10T01:29:40.372Z,1011.6
2016-06-10T01:29:50.356Z,1011.63
2016-06-10T01:30:00.356Z,1011.61
2016-06-10T01:30:10.356Z,1011.63
2016-06-10T01:30:20.344Z,1011.58
2016-06-10T01:30:30.344Z,1011.56
2016-06-10T01:30:40.344Z,1011.58
2016-06-10T01:30:50.329Z,1011.59
2016-06-10T01:31:00.329Z,1011.58
2016-06-10T01:31:10.313Z,1011.58
2016-06-10T01:31:20.315Z,1011.6
2016-06-10T01:31:30.315Z,1011.55
2016-06-10T01:31:40.315Z,1011.55
2016-06-10T01:31:50.299Z,1011.57
2016-06-10T01:32:00.315Z,1011.61
2016-06-10T01:32:10.284Z,1011.56
2016-06-10T01:32:20.288Z,1011.61
2016-06-10T01:32:30.288Z,1011.57
2016-06-10T01:32:40.272Z,1011.53
2016-06-10T01:32:50.272Z,1011.57
2016-06-10T01:33:00.272Z,1011.53
2016-06-10T01:33:10.257Z,1011.51
2016-06-10T01:33:20.260Z,1011.58
2016-06-10T01:33:30.260Z,1011.55
2016-06-10T01:33:40.244Z,1011.54
2016-06-10T01:33:50.244Z,1011.58
2016-06-10T01:34:00.244Z,1011.56
2016-06-10T01:34:10.228Z,1011.53
2016-06-10T01:34:20.231Z,1011.56
2016-06-10T01:34:30.216Z,1011.57
2016-06-10T01:34:40.216Z,1011.55
2016-06-10T01:34:50.216Z,1011.5
2016-06-10T01:35:00.216Z,1011.53
2016-06-10T01:35:10.216Z,1011.51
2016-06-10T01:35:20.203Z,1011.49
2016-06-10T01:35:30.187Z,1011.49
2016-06-10T01:35:40.187Z,1011.49
2016-06-10T01:35:50.172Z,1011.53
2016-06-10T01:36:00.187Z,1011.53
2016-06-10T01:36:10.172Z,1011.51
2016-06-10T01:36:20.176Z,1011.55
2016-06-10T01:36:30.176Z,1011.52
2016-06-10T01:36:40.160Z,1011.52
2016-06-10T01:36:50.145Z,1011.51
2016-06-10T01:37:00.145Z,1011.48
2016-06-10T01:37:10.160Z,1011.49
2016-06-10T01:37:20.131Z,1011.48
2016-06-10T01:37:30.131Z,1011.46
2016-06-10T01:37:40.131Z,1011.52
2016-06-10T01:37:50.115Z,1011.47
2016-06-10T01:38:00.115Z,1011.45
2016-06-10T01:38:10.131Z,1011.47
2016-06-10T01:38:20.118Z,1011.49
2016-06-10T01:38:30.103Z,1011.46
2016-06-10T01:38:40.103Z,1011.49
2016-06-10T01:38:50.103Z,1011.48
2016-06-10T01:39:00.087Z,1011.47
2016-06-10T01:39:10.087Z,1011.45
2016-06-10T01:39:20.075Z,1011.46
2016-06-10T01:39:30.075Z,1011.44
2016-06-10T01:39:40.107Z,1011.51
2016-06-10T01:39:50.075Z,1011.48
2016-06-10T01:40:00.357Z,1011.48
2016-06-10T01:40:10.513Z,1011.47
2016-06-10T01:40:20.063Z,1011.52
2016-06-10T01:40:30.469Z,1011.48
2016-06-10T01:40:40.125Z,1011.46
2016-06-10T01:40:50.157Z,1011.47
2016-06-10T01:41:00.032Z,1011.52
2016-06-10T01:41:10.016Z,1011.47
2016-06-10T01:41:20.065Z,1011.5
2016-06-10T01:41:30.018Z,1011.47
2016-06-10T01:41:40.002Z,1011.48
2016-06-10T01:41:50.002Z,1011.51
2016-06-10T01:41:59.987Z,1011.52
2016-06-10T01:42:09.987Z,1011.5
2016-06-10T01:42:19.991Z,1011.49
2016-06-10T01:42:29.991Z,1011.51
2016-06-10T01:42:39.975Z,1011.47
2016-06-10T01:42:49.975Z,1011.47
2016-06-10T01:42:59.975Z,1011.48
2016-06-10T01:43:09.959Z,1011.46
2016-06-10T01:43:19.962Z,1011.49
2016-06-10T01:43:29.962Z,1011.45
2016-06-10T01:43:39.947Z,1011.44
2016-06-10T01:43:49.947Z,1011.45
2016-06-10T01:43:59.947Z,1011.49
2016-06-10T01:44:09.931Z,1011.51
2016-06-10T01:44:19.934Z,1011.51
2016-06-10T01:44:29.919Z,1011.42
2016-06-10T01:44:39.934Z,1011.47
2016-06-10T01:44:49.919Z,1011.46
2016-06-10T01:44:59.903Z,1011.47
2016-06-10T01:45:09.903Z,1011.5
2016-06-10T01:45:19.750Z,1011.49
2016-06-10T01:45:29.890Z,1011.5
2016-06-10T01:45:39.906Z,1011.49
2016-06-10T01:45:49.875Z,1011.49
2016-06-10T01:45:59.890Z,1011.49
2016-06-10T01:46:09.875Z,1011.48
2016-06-10T01:46:19.862Z,1011.46
2016-06-10T01:46:29.862Z,1011.47
2016-06-10T01:46:39.862Z,1011.49
2016-06-10T01:46:49.846Z,1011.47
2016-06-10T01:46:59.862Z,1011.49
2016-06-10T01:47:09.846Z,1011.53
2016-06-10T01:47:19.834Z,1011.53
2016-06-10T01:47:29.834Z,1011.46
2016-06-10T01:47:39.818Z,1011.5
2016-06-10T01:47:49.834Z,1011.48
2016-06-10T01:47:59.818Z,1011.52
2016-06-10T01:48:09.818Z,1011.5
2016-06-10T01:48:19.806Z,1011.47
2016-06-10T01:48:29.806Z,1011.51
2016-06-10T01:48:39.806Z,1011.46
2016-06-10T01:48:49.790Z,1011.48
2016-06-10T01:48:59.790Z,1011.49
2016-06-10T01:49:09.774Z,1011.5
2016-06-10T01:49:19.777Z,1011.53
2016-06-10T01:49:29.762Z,1011.51
2016-06-10T01:49:39.777Z,1011.5
2016-06-10T01:49:49.762Z,1011.44
2016-06-10T01:49:59.762Z,1011.49
2016-06-10T01:50:09.746Z,1011.46
2016-06-10T01:50:19.749Z,1011.48
2016-06-10T01:50:29.749Z,1011.47
2016-06-10T01:50:39.733Z,1011.48
2016-06-10T01:50:49.733Z,1011.52
2016-06-10T01:50:59.733Z,1011.54
2016-06-10T01:51:09.718Z,1011.48
2016-06-10T01:51:19.737Z,1011.49
2016-06-10T01:51:29.706Z,1011.43
2016-06-10T01:51:39.706Z,1011.51
2016-06-10T01:51:49.706Z,1011.54
2016-06-10T01:51:59.691Z,1011.52
2016-06-10T01:52:09.691Z,1011.52
2016-06-10T01:52:19.678Z,1011.51
2016-06-10T01:52:29.678Z,1011.54
2016-06-10T01:52:39.678Z,1011.49
2016-06-10T01:52:49.678Z,1011.46
2016-06-10T01:52:59.678Z,1011.54
2016-06-10T01:53:09.662Z,1011.5
2016-06-10T01:53:19.649Z,1011.49
2016-06-10T01:53:29.649Z,1011.5
2016-06-10T01:53:39.649Z,1011.49
2016-06-10T01:53:49.649Z,1011.49
2016-06-10T01:53:59.649Z,1011.47
2016-06-10T01:54:09.633Z,1011.51
2016-06-10T01:54:19.621Z,1011.49
2016-06-10T01:54:29.621Z,1011.46
2016-06-10T01:54:40.121Z,1011.47
2016-06-10T01:54:49.575Z,1011.47
2016-06-10T01:55:00.528Z,1011.52
2016-06-10T01:55:09.621Z,1011.51
2016-06-10T01:55:19.453Z,1011.53
2016-06-10T01:55:29.593Z,1011.53
2016-06-10T01:55:39.734Z,1011.56
2016-06-10T01:55:49.593Z,1011.54
2016-06-10T01:55:59.578Z,1011.55
2016-06-10T01:56:09.578Z,1011.49
2016-06-10T01:56:19.564Z,1011.59
2016-06-10T01:56:29.564Z,1011.55
2016-06-10T01:56:39.580Z,1011.52
2016-06-10T01:56:49.548Z,1011.49
2016-06-10T01:56:59.533Z,1011.53
2016-06-10T01:57:09.533Z,1011.53
2016-06-10T01:57:19.537Z,1011.56
2016-06-10T01:57:29.537Z,1011.54
2016-06-10T01:57:39.537Z,1011.54
2016-06-10T01:57:49.521Z,1011.54
2016-06-10T01:57:59.521Z,1011.51
2016-06-10T01:58:09.505Z,1011.52
2016-06-10T01:58:19.508Z,1011.58
2016-06-10T01:58:29.493Z,1011.55
2016-06-10T01:58:39.493Z,1011.51
2016-06-10T01:58:49.493Z,1011.5
2016-06-10T01:58:59.477Z,1011.51
2016-06-10T01:59:09.477Z,1011.51
2016-06-10T01:59:19.480Z,1011.51
2016-06-10T01:59:29.465Z,1011.53
2016-06-10T01:59:39.465Z,1011.5
2016-06-10T01:59:49.465Z,1011.53
2016-06-10T01:59:59.480Z,1011.49
2016-06-10T02:00:09.465Z,1011.52
2016-06-10T02:00:19.452Z,1011.53
2016-06-10T02:00:29.436Z,1011.48
2016-06-10T02:00:39.436Z,1011.48
2016-06-10T02:00:49.436Z,1011.53
2016-06-10T02:00:59.421Z,1011.55
2016-06-10T02:01:09.421Z,1011.5
2016-06-10T02:01:19.424Z,1011.52